sensor_id;sensor_type;location;lat;lon;timestamp;P1;durP1;ratioP1;P2;durP2;ratioP2
77018;SDS011;66044;53.142;17.962;2023-11-22T00:02:16;13.70;;;6.40;;
77018;SDS011;66044;53.142;17.962;2023-11-22T00:04:43;20.60;;;8.30;;
77018;SDS011;66044;53.142;17.962;2023-11-22T00:07:10;17.40;;;6.80;;
77018;SDS011;66044;53.142;17.962;2023-11-22T00:09:36;16.50;;;6.70;;
77018;SDS011;66044;53.142;17.962;2023-11-22T00:12:04;16.30;;;6.70;;
77018;SDS011;66044;53.142;17.962;2023-11-22T00:14:31;16.70;;;7.90;;
77018;SDS011;66044;53.142;17.962;2023-11-22T00:16:57;17.00;;;7.40;;
77018;SDS011;66044;53.142;17.962;2023-11-22T00:19:24;14.80;;;6.70;;
77018;SDS011;66044;53.142;17.962;2023-11-22T00:21:51;14.10;;;6.80;;
77018;SDS011;66044;53.142;17.962;2023-11-22T00:24:17;18.30;;;7.40;;
77018;SDS011;66044;53.142;17.962;2023-11-22T00:26:44;16.40;;;7.20;;
77018;SDS011;66044;53.142;17.962;2023-11-22T00:29:11;15.50;;;7.10;;
77018;SDS011;66044;53.142;17.962;2023-11-22T00:31:38;15.60;;;6.70;;
77018;SDS011;66044;53.142;17.962;2023-11-22T00:34:05;14.10;;;6.20;;
77018;SDS011;66044;53.142;17.962;2023-11-22T00:36:31;17.40;;;7.40;;
77018;SDS011;66044;53.142;17.962;2023-11-22T00:38:58;14.70;;;6.30;;
77018;SDS011;66044;53.142;17.962;2023-11-22T00:41:29;16.70;;;7.60;;
77018;SDS011;66044;53.142;17.962;2023-11-22T00:43:56;13.20;;;6.10;;
77018;SDS011;66044;53.142;17.962;2023-11-22T00:46:23;16.70;;;7.00;;
77018;SDS011;66044;53.142;17.962;2023-11-22T00:48:49;15.50;;;7.80;;
77018;SDS011;66044;53.142;17.962;2023-11-22T00:51:16;15.70;;;6.60;;
77018;SDS011;66044;53.142;17.962;2023-11-22T00:53:43;16.40;;;7.60;;
77018;SDS011;66044;53.142;17.962;2023-11-22T00:56:09;12.70;;;5.70;;
77018;SDS011;66044;53.142;17.962;2023-11-22T00:58:36;19.50;;;8.50;;
77018;SDS011;66044;53.142;17.962;2023-11-22T01:01:03;15.20;;;6.90;;
77018;SDS011;66044;53.142;17.962;2023-11-22T01:03:29;16.10;;;6.40;;
77018;SDS011;66044;53.142;17.962;2023-11-22T01:05:56;17.30;;;7.80;;
77018;SDS011;66044;53.142;17.962;2023-11-22T01:08:22;14.80;;;6.40;;
77018;SDS011;66044;53.142;17.962;2023-11-22T01:10:48;13.00;;;5.70;;
77018;SDS011;66044;53.142;17.962;2023-11-22T01:13:15;14.60;;;6.30;;
77018;SDS011;66044;53.142;17.962;2023-11-22T01:15:41;15.40;;;7.10;;
77018;SDS011;66044;53.142;17.962;2023-11-22T01:18:08;13.80;;;7.00;;
77018;SDS011;66044;53.142;17.962;2023-11-22T01:20:34;11.80;;;6.00;;
77018;SDS011;66044;53.142;17.962;2023-11-22T01:23:01;11.70;;;6.00;;
77018;SDS011;66044;53.142;17.962;2023-11-22T01:25:27;12.10;;;5.70;;
77018;SDS011;66044;53.142;17.962;2023-11-22T01:27:54;11.00;;;4.80;;
77018;SDS011;66044;53.142;17.962;2023-11-22T01:30:21;14.70;;;6.90;;
77018;SDS011;66044;53.142;17.962;2023-11-22T01:32:48;13.60;;;5.70;;
77018;SDS011;66044;53.142;17.962;2023-11-22T01:35:15;14.80;;;6.50;;
77018;SDS011;66044;53.142;17.962;2023-11-22T01:37:42;12.90;;;5.60;;
77018;SDS011;66044;53.142;17.962;2023-11-22T01:40:08;9.60;;;4.50;;
77018;SDS011;66044;53.142;17.962;2023-11-22T01:42:35;11.40;;;5.70;;
77018;SDS011;66044;53.142;17.962;2023-11-22T01:45:03;13.10;;;5.50;;
77018;SDS011;66044;53.142;17.962;2023-11-22T01:47:31;11.10;;;5.00;;
77018;SDS011;66044;53.142;17.962;2023-11-22T01:49:57;10.40;;;5.00;;
77018;SDS011;66044;53.142;17.962;2023-11-22T01:52:24;11.60;;;5.70;;
77018;SDS011;66044;53.142;17.962;2023-11-22T01:54:52;11.50;;;5.40;;
77018;SDS011;66044;53.142;17.962;2023-11-22T01:57:19;13.10;;;6.80;;
77018;SDS011;66044;53.142;17.962;2023-11-22T01:59:46;13.00;;;6.60;;
77018;SDS011;66044;53.142;17.962;2023-11-22T02:02:13;11.80;;;5.80;;
77018;SDS011;66044;53.142;17.962;2023-11-22T02:04:40;12.80;;;6.10;;
77018;SDS011;66044;53.142;17.962;2023-11-22T02:07:06;12.40;;;6.20;;
77018;SDS011;66044;53.142;17.962;2023-11-22T02:09:33;13.30;;;5.60;;
77018;SDS011;66044;53.142;17.962;2023-11-22T02:11:59;19.60;;;9.30;;
77018;SDS011;66044;53.142;17.962;2023-11-22T02:14:25;37.00;;;15.20;;
77018;SDS011;66044;53.142;17.962;2023-11-22T02:16:52;32.50;;;14.80;;
77018;SDS011;66044;53.142;17.962;2023-11-22T02:19:18;25.90;;;10.20;;
77018;SDS011;66044;53.142;17.962;2023-11-22T02:21:46;16.60;;;7.20;;
77018;SDS011;66044;53.142;17.962;2023-11-22T02:24:13;11.70;;;5.70;;
77018;SDS011;66044;53.142;17.962;2023-11-22T02:26:43;14.10;;;5.80;;
77018;SDS011;66044;53.142;17.962;2023-11-22T02:29:11;13.40;;;5.40;;
77018;SDS011;66044;53.142;17.962;2023-11-22T02:31:39;12.80;;;5.80;;
77018;SDS011;66044;53.142;17.962;2023-11-22T02:34:07;12.70;;;5.90;;
77018;SDS011;66044;53.142;17.962;2023-11-22T02:36:34;14.90;;;7.20;;
77018;SDS011;66044;53.142;17.962;2023-11-22T02:39:01;14.00;;;6.70;;
77018;SDS011;66044;53.142;17.962;2023-11-22T02:41:27;12.90;;;5.70;;
77018;SDS011;66044;53.142;17.962;2023-11-22T02:43:56;13.90;;;6.40;;
77018;SDS011;66044;53.142;17.962;2023-11-22T02:46:23;13.10;;;6.20;;
77018;SDS011;66044;53.142;17.962;2023-11-22T02:48:49;11.90;;;6.20;;
77018;SDS011;66044;53.142;17.962;2023-11-22T02:51:16;12.50;;;6.30;;
77018;SDS011;66044;53.142;17.962;2023-11-22T02:53:43;11.60;;;6.20;;
77018;SDS011;66044;53.142;17.962;2023-11-22T02:56:11;14.50;;;6.60;;
77018;SDS011;66044;53.142;17.962;2023-11-22T02:58:38;12.40;;;6.00;;
77018;SDS011;66044;53.142;17.962;2023-11-22T03:01:04;12.80;;;6.90;;
77018;SDS011;66044;53.142;17.962;2023-11-22T03:03:31;11.90;;;6.40;;
77018;SDS011;66044;53.142;17.962;2023-11-22T03:05:57;12.40;;;6.00;;
77018;SDS011;66044;53.142;17.962;2023-11-22T03:08:24;16.30;;;7.30;;
77018;SDS011;66044;53.142;17.962;2023-11-22T03:10:50;23.30;;;10.70;;
77018;SDS011;66044;53.142;17.962;2023-11-22T03:13:17;16.00;;;8.20;;
77018;SDS011;66044;53.142;17.962;2023-11-22T03:15:45;13.90;;;7.20;;
77018;SDS011;66044;53.142;17.962;2023-11-22T03:18:11;11.40;;;5.90;;
77018;SDS011;66044;53.142;17.962;2023-11-22T03:20:38;11.70;;;5.60;;
77018;SDS011;66044;53.142;17.962;2023-11-22T03:23:05;12.90;;;5.40;;
77018;SDS011;66044;53.142;17.962;2023-11-22T03:25:32;14.30;;;7.50;;
77018;SDS011;66044;53.142;17.962;2023-11-22T03:27:58;13.40;;;6.50;;
77018;SDS011;66044;53.142;17.962;2023-11-22T03:30:24;16.20;;;9.20;;
77018;SDS011;66044;53.142;17.962;2023-11-22T03:32:51;12.40;;;5.10;;
77018;SDS011;66044;53.142;17.962;2023-11-22T03:35:17;12.60;;;5.60;;
77018;SDS011;66044;53.142;17.962;2023-11-22T03:37:44;12.90;;;6.60;;
77018;SDS011;66044;53.142;17.962;2023-11-22T03:40:10;12.20;;;5.50;;
77018;SDS011;66044;53.142;17.962;2023-11-22T03:42:37;15.70;;;7.00;;
77018;SDS011;66044;53.142;17.962;2023-11-22T03:45:06;12.20;;;6.30;;
77018;SDS011;66044;53.142;17.962;2023-11-22T03:47:33;14.50;;;7.50;;
77018;SDS011;66044;53.142;17.962;2023-11-22T03:49:59;15.20;;;8.10;;
77018;SDS011;66044;53.142;17.962;2023-11-22T03:52:26;16.60;;;8.80;;
77018;SDS011;66044;53.142;17.962;2023-11-22T03:54:55;15.60;;;7.70;;
77018;SDS011;66044;53.142;17.962;2023-11-22T03:57:23;13.60;;;7.10;;
77018;SDS011;66044;53.142;17.962;2023-11-22T03:59:50;16.60;;;8.10;;
77018;SDS011;66044;53.142;17.962;2023-11-22T04:02:16;14.00;;;7.90;;
77018;SDS011;66044;53.142;17.962;2023-11-22T04:04:43;12.90;;;7.50;;
77018;SDS011;66044;53.142;17.962;2023-11-22T04:07:10;13.60;;;6.20;;
77018;SDS011;66044;53.142;17.962;2023-11-22T04:09:37;12.20;;;6.90;;
77018;SDS011;66044;53.142;17.962;2023-11-22T04:12:04;15.80;;;8.70;;
77018;SDS011;66044;53.142;17.962;2023-11-22T04:14:32;15.20;;;8.60;;
77018;SDS011;66044;53.142;17.962;2023-11-22T04:16:59;12.90;;;6.90;;
77018;SDS011;66044;53.142;17.962;2023-11-22T04:19:25;14.40;;;8.00;;
77018;SDS011;66044;53.142;17.962;2023-11-22T04:21:51;14.80;;;7.60;;
77018;SDS011;66044;53.142;17.962;2023-11-22T04:24:20;16.10;;;7.60;;
77018;SDS011;66044;53.142;17.962;2023-11-22T04:26:46;17.00;;;8.50;;
77018;SDS011;66044;53.142;17.962;2023-11-22T04:29:13;13.50;;;7.00;;
77018;SDS011;66044;53.142;17.962;2023-11-22T04:31:39;14.30;;;6.90;;
77018;SDS011;66044;53.142;17.962;2023-11-22T04:34:05;17.70;;;7.60;;
77018;SDS011;66044;53.142;17.962;2023-11-22T04:36:32;15.40;;;7.10;;
77018;SDS011;66044;53.142;17.962;2023-11-22T04:38:59;16.40;;;6.60;;
77018;SDS011;66044;53.142;17.962;2023-11-22T04:41:26;17.00;;;7.40;;
77018;SDS011;66044;53.142;17.962;2023-11-22T04:43:53;24.60;;;10.80;;
77018;SDS011;66044;53.142;17.962;2023-11-22T04:46:20;20.90;;;9.70;;
77018;SDS011;66044;53.142;17.962;2023-11-22T04:48:46;18.20;;;8.60;;
77018;SDS011;66044;53.142;17.962;2023-11-22T04:51:17;16.30;;;8.20;;
77018;SDS011;66044;53.142;17.962;2023-11-22T04:53:43;16.60;;;8.90;;
77018;SDS011;66044;53.142;17.962;2023-11-22T04:56:10;15.40;;;8.10;;
77018;SDS011;66044;53.142;17.962;2023-11-22T04:58:36;13.80;;;7.40;;
77018;SDS011;66044;53.142;17.962;2023-11-22T05:01:03;15.60;;;7.30;;
77018;SDS011;66044;53.142;17.962;2023-11-22T05:03:31;12.70;;;6.70;;
77018;SDS011;66044;53.142;17.962;2023-11-22T05:05:57;13.50;;;7.10;;
77018;SDS011;66044;53.142;17.962;2023-11-22T05:08:23;15.80;;;7.90;;
77018;SDS011;66044;53.142;17.962;2023-11-22T05:10:51;13.60;;;6.70;;
77018;SDS011;66044;53.142;17.962;2023-11-22T05:13:17;13.60;;;6.80;;
77018;SDS011;66044;53.142;17.962;2023-11-22T05:15:44;13.70;;;6.40;;
77018;SDS011;66044;53.142;17.962;2023-11-22T05:18:10;12.50;;;6.80;;
77018;SDS011;66044;53.142;17.962;2023-11-22T05:20:37;15.30;;;7.70;;
77018;SDS011;66044;53.142;17.962;2023-11-22T05:23:04;11.40;;;6.50;;
77018;SDS011;66044;53.142;17.962;2023-11-22T05:25:30;13.60;;;7.00;;
77018;SDS011;66044;53.142;17.962;2023-11-22T05:27:58;13.30;;;7.00;;
77018;SDS011;66044;53.142;17.962;2023-11-22T05:30:25;15.90;;;8.00;;
77018;SDS011;66044;53.142;17.962;2023-11-22T05:32:52;13.90;;;7.30;;
77018;SDS011;66044;53.142;17.962;2023-11-22T05:35:18;13.90;;;7.30;;
77018;SDS011;66044;53.142;17.962;2023-11-22T05:37:47;14.10;;;7.90;;
77018;SDS011;66044;53.142;17.962;2023-11-22T05:40:14;13.00;;;6.80;;
77018;SDS011;66044;53.142;17.962;2023-11-22T05:42:41;19.80;;;10.50;;
77018;SDS011;66044;53.142;17.962;2023-11-22T05:45:08;19.90;;;10.60;;
77018;SDS011;66044;53.142;17.962;2023-11-22T05:47:35;18.70;;;10.20;;
77018;SDS011;66044;53.142;17.962;2023-11-22T05:50:02;18.70;;;9.80;;
77018;SDS011;66044;53.142;17.962;2023-11-22T05:52:29;19.00;;;10.30;;
77018;SDS011;66044;53.142;17.962;2023-11-22T05:54:55;15.80;;;8.10;;
77018;SDS011;66044;53.142;17.962;2023-11-22T05:57:22;19.40;;;11.70;;
77018;SDS011;66044;53.142;17.962;2023-11-22T05:59:49;21.90;;;13.40;;
77018;SDS011;66044;53.142;17.962;2023-11-22T06:02:15;18.60;;;10.10;;
77018;SDS011;66044;53.142;17.962;2023-11-22T06:04:42;16.40;;;9.00;;
77018;SDS011;66044;53.142;17.962;2023-11-22T06:07:08;17.30;;;10.20;;
77018;SDS011;66044;53.142;17.962;2023-11-22T06:09:34;22.70;;;10.90;;
77018;SDS011;66044;53.142;17.962;2023-11-22T06:12:02;21.40;;;11.70;;
77018;SDS011;66044;53.142;17.962;2023-11-22T06:14:29;27.40;;;14.70;;
77018;SDS011;66044;53.142;17.962;2023-11-22T06:16:55;25.30;;;14.00;;
77018;SDS011;66044;53.142;17.962;2023-11-22T06:19:21;25.00;;;13.00;;
77018;SDS011;66044;53.142;17.962;2023-11-22T06:21:48;30.30;;;14.90;;
77018;SDS011;66044;53.142;17.962;2023-11-22T06:24:14;31.50;;;17.70;;
77018;SDS011;66044;53.142;17.962;2023-11-22T06:26:44;29.90;;;15.50;;
77018;SDS011;66044;53.142;17.962;2023-11-22T06:29:12;36.20;;;18.60;;
77018;SDS011;66044;53.142;17.962;2023-11-22T06:31:38;43.50;;;22.70;;
77018;SDS011;66044;53.142;17.962;2023-11-22T06:34:06;52.00;;;25.90;;
77018;SDS011;66044;53.142;17.962;2023-11-22T06:36:33;45.10;;;22.10;;
77018;SDS011;66044;53.142;17.962;2023-11-22T06:38:59;35.00;;;19.30;;
77018;SDS011;66044;53.142;17.962;2023-11-22T06:41:26;37.00;;;18.50;;
77018;SDS011;66044;53.142;17.962;2023-11-22T06:43:52;36.20;;;18.50;;
77018;SDS011;66044;53.142;17.962;2023-11-22T06:46:19;33.50;;;19.90;;
77018;SDS011;66044;53.142;17.962;2023-11-22T06:48:45;38.50;;;21.70;;
77018;SDS011;66044;53.142;17.962;2023-11-22T06:51:14;41.40;;;21.90;;
77018;SDS011;66044;53.142;17.962;2023-11-22T06:53:40;53.10;;;26.30;;
77018;SDS011;66044;53.142;17.962;2023-11-22T06:56:07;52.40;;;27.90;;
77018;SDS011;66044;53.142;17.962;2023-11-22T06:58:33;49.40;;;26.00;;
77018;SDS011;66044;53.142;17.962;2023-11-22T07:01:01;57.70;;;29.50;;
77018;SDS011;66044;53.142;17.962;2023-11-22T07:03:27;57.00;;;28.00;;
77018;SDS011;66044;53.142;17.962;2023-11-22T07:05:54;47.50;;;25.50;;
77018;SDS011;66044;53.142;17.962;2023-11-22T07:08:20;44.30;;;23.20;;
77018;SDS011;66044;53.142;17.962;2023-11-22T07:10:48;35.30;;;19.30;;
77018;SDS011;66044;53.142;17.962;2023-11-22T07:13:16;34.80;;;17.70;;
77018;SDS011;66044;53.142;17.962;2023-11-22T07:15:44;30.90;;;17.50;;
77018;SDS011;66044;53.142;17.962;2023-11-22T07:18:10;33.90;;;19.60;;
77018;SDS011;66044;53.142;17.962;2023-11-22T07:20:39;35.40;;;19.90;;
77018;SDS011;66044;53.142;17.962;2023-11-22T07:23:05;28.10;;;15.60;;
77018;SDS011;66044;53.142;17.962;2023-11-22T07:25:32;26.80;;;14.90;;
77018;SDS011;66044;53.142;17.962;2023-11-22T07:28:00;31.30;;;16.70;;
77018;SDS011;66044;53.142;17.962;2023-11-22T07:30:26;32.60;;;18.30;;
77018;SDS011;66044;53.142;17.962;2023-11-22T07:32:56;30.30;;;17.40;;
77018;SDS011;66044;53.142;17.962;2023-11-22T07:35:25;28.70;;;16.70;;
77018;SDS011;66044;53.142;17.962;2023-11-22T07:37:54;33.50;;;16.90;;
77018;SDS011;66044;53.142;17.962;2023-11-22T07:40:20;39.40;;;18.70;;
77018;SDS011;66044;53.142;17.962;2023-11-22T07:42:48;57.80;;;32.50;;
77018;SDS011;66044;53.142;17.962;2023-11-22T07:45:15;64.80;;;31.10;;
77018;SDS011;66044;53.142;17.962;2023-11-22T07:47:43;42.20;;;21.20;;
77018;SDS011;66044;53.142;17.962;2023-11-22T07:50:12;61.50;;;28.80;;
77018;SDS011;66044;53.142;17.962;2023-11-22T07:52:38;88.50;;;39.70;;
77018;SDS011;66044;53.142;17.962;2023-11-22T07:55:06;83.40;;;39.40;;
77018;SDS011;66044;53.142;17.962;2023-11-22T07:57:34;69.30;;;33.00;;
77018;SDS011;66044;53.142;17.962;2023-11-22T08:00:01;75.70;;;34.30;;
77018;SDS011;66044;53.142;17.962;2023-11-22T08:02:31;59.70;;;26.60;;
77018;SDS011;66044;53.142;17.962;2023-11-22T08:04:57;67.90;;;31.20;;
77018;SDS011;66044;53.142;17.962;2023-11-22T08:07:24;54.40;;;27.20;;
77018;SDS011;66044;53.142;17.962;2023-11-22T08:09:52;72.50;;;33.10;;
77018;SDS011;66044;53.142;17.962;2023-11-22T08:12:19;49.20;;;25.20;;
77018;SDS011;66044;53.142;17.962;2023-11-22T08:14:45;36.00;;;20.00;;
77018;SDS011;66044;53.142;17.962;2023-11-22T08:17:12;55.00;;;27.10;;
77018;SDS011;66044;53.142;17.962;2023-11-22T08:19:40;45.70;;;25.30;;
77018;SDS011;66044;53.142;17.962;2023-11-22T08:22:06;42.60;;;22.20;;
77018;SDS011;66044;53.142;17.962;2023-11-22T08:24:32;42.80;;;20.60;;
77018;SDS011;66044;53.142;17.962;2023-11-22T08:26:59;38.40;;;20.40;;
77018;SDS011;66044;53.142;17.962;2023-11-22T08:29:26;39.90;;;18.70;;
77018;SDS011;66044;53.142;17.962;2023-11-22T08:31:53;39.30;;;20.10;;
77018;SDS011;66044;53.142;17.962;2023-11-22T08:34:19;46.40;;;24.20;;
77018;SDS011;66044;53.142;17.962;2023-11-22T08:36:46;41.70;;;21.70;;
77018;SDS011;66044;53.142;17.962;2023-11-22T08:39:12;29.30;;;15.40;;
77018;SDS011;66044;53.142;17.962;2023-11-22T08:41:39;23.60;;;11.80;;
77018;SDS011;66044;53.142;17.962;2023-11-22T08:44:05;22.80;;;12.30;;
77018;SDS011;66044;53.142;17.962;2023-11-22T08:46:32;18.30;;;9.50;;
77018;SDS011;66044;53.142;17.962;2023-11-22T08:48:59;25.20;;;12.80;;
77018;SDS011;66044;53.142;17.962;2023-11-22T08:51:25;23.90;;;13.20;;
77018;SDS011;66044;53.142;17.962;2023-11-22T08:53:53;21.50;;;12.40;;
77018;SDS011;66044;53.142;17.962;2023-11-22T08:56:19;24.40;;;13.40;;
77018;SDS011;66044;53.142;17.962;2023-11-22T08:58:46;31.80;;;16.60;;
77018;SDS011;66044;53.142;17.962;2023-11-22T09:01:13;31.80;;;14.20;;
77018;SDS011;66044;53.142;17.962;2023-11-22T09:03:40;25.90;;;12.60;;
77018;SDS011;66044;53.142;17.962;2023-11-22T09:06:07;25.60;;;13.80;;
77018;SDS011;66044;53.142;17.962;2023-11-22T09:08:34;25.50;;;13.10;;
77018;SDS011;66044;53.142;17.962;2023-11-22T09:11:02;34.50;;;18.20;;
77018;SDS011;66044;53.142;17.962;2023-11-22T09:13:32;25.80;;;12.80;;
77018;SDS011;66044;53.142;17.962;2023-11-22T09:15:59;26.00;;;12.30;;
77018;SDS011;66044;53.142;17.962;2023-11-22T09:18:25;21.20;;;10.80;;
77018;SDS011;66044;53.142;17.962;2023-11-22T09:20:52;20.20;;;10.90;;
77018;SDS011;66044;53.142;17.962;2023-11-22T09:23:20;23.10;;;12.80;;
77018;SDS011;66044;53.142;17.962;2023-11-22T09:25:47;19.90;;;10.50;;
77018;SDS011;66044;53.142;17.962;2023-11-22T09:28:13;23.50;;;11.90;;
77018;SDS011;66044;53.142;17.962;2023-11-22T09:30:42;27.20;;;14.30;;
77018;SDS011;66044;53.142;17.962;2023-11-22T09:33:10;21.10;;;11.70;;
77018;SDS011;66044;53.142;17.962;2023-11-22T09:35:37;24.50;;;13.10;;
77018;SDS011;66044;53.142;17.962;2023-11-22T09:38:04;50.00;;;26.50;;
77018;SDS011;66044;53.142;17.962;2023-11-22T09:40:41;45.60;;;21.40;;
77018;SDS011;66044;53.142;17.962;2023-11-22T09:43:09;28.50;;;14.70;;
77018;SDS011;66044;53.142;17.962;2023-11-22T09:45:36;23.70;;;12.40;;
77018;SDS011;66044;53.142;17.962;2023-11-22T09:48:12;23.00;;;11.40;;
77018;SDS011;66044;53.142;17.962;2023-11-22T09:53:12;22.90;;;10.90;;
77018;SDS011;66044;53.142;17.962;2023-11-22T09:55:45;18.50;;;10.10;;
77018;SDS011;66044;53.142;17.962;2023-11-22T09:58:12;19.20;;;9.90;;
77018;SDS011;66044;53.142;17.962;2023-11-22T10:00:42;31.20;;;15.30;;
77018;SDS011;66044;53.142;17.962;2023-11-22T10:03:10;26.60;;;14.10;;
77018;SDS011;66044;53.142;17.962;2023-11-22T10:05:43;25.20;;;11.50;;
77018;SDS011;66044;53.142;17.962;2023-11-22T10:08:09;23.30;;;11.80;;
77018;SDS011;66044;53.142;17.962;2023-11-22T10:10:36;17.40;;;8.80;;
77018;SDS011;66044;53.142;17.962;2023-11-22T10:13:03;19.00;;;9.40;;
77018;SDS011;66044;53.142;17.962;2023-11-22T10:15:30;17.20;;;9.60;;
77018;SDS011;66044;53.142;17.962;2023-11-22T10:17:58;18.40;;;9.20;;
77018;SDS011;66044;53.142;17.962;2023-11-22T10:20:36;21.60;;;12.30;;
77018;SDS011;66044;53.142;17.962;2023-11-22T10:23:08;21.00;;;12.10;;
77018;SDS011;66044;53.142;17.962;2023-11-22T10:25:36;18.60;;;10.20;;
77018;SDS011;66044;53.142;17.962;2023-11-22T10:28:09;17.60;;;9.70;;
77018;SDS011;66044;53.142;17.962;2023-11-22T10:30:36;21.00;;;10.30;;
77018;SDS011;66044;53.142;17.962;2023-11-22T10:33:03;21.50;;;10.30;;
77018;SDS011;66044;53.142;17.962;2023-11-22T10:35:29;21.20;;;10.40;;
77018;SDS011;66044;53.142;17.962;2023-11-22T10:37:59;19.90;;;10.20;;
77018;SDS011;66044;53.142;17.962;2023-11-22T10:40:28;19.70;;;8.00;;
77018;SDS011;66044;53.142;17.962;2023-11-22T10:42:55;20.30;;;9.50;;
77018;SDS011;66044;53.142;17.962;2023-11-22T10:45:23;18.90;;;9.60;;
77018;SDS011;66044;53.142;17.962;2023-11-22T10:47:55;23.00;;;11.90;;
77018;SDS011;66044;53.142;17.962;2023-11-22T10:50:23;18.70;;;9.50;;
77018;SDS011;66044;53.142;17.962;2023-11-22T10:52:50;23.50;;;11.00;;
77018;SDS011;66044;53.142;17.962;2023-11-22T10:55:21;27.60;;;10.40;;
77018;SDS011;66044;53.142;17.962;2023-11-22T10:57:54;19.30;;;8.30;;
77018;SDS011;66044;53.142;17.962;2023-11-22T11:00:25;16.60;;;8.00;;
77018;SDS011;66044;53.142;17.962;2023-11-22T11:02:55;21.00;;;8.70;;
77018;SDS011;66044;53.142;17.962;2023-11-22T11:05:57;18.20;;;8.10;;
77018;SDS011;66044;53.142;17.962;2023-11-22T11:08:28;28.80;;;11.40;;
77018;SDS011;66044;53.142;17.962;2023-11-22T11:10:54;18.80;;;8.20;;
77018;SDS011;66044;53.142;17.962;2023-11-22T11:13:22;16.00;;;7.60;;
77018;SDS011;66044;53.142;17.962;2023-11-22T11:15:50;16.20;;;7.80;;
77018;SDS011;66044;53.142;17.962;2023-11-22T11:18:18;16.20;;;7.70;;
77018;SDS011;66044;53.142;17.962;2023-11-22T11:20:55;17.00;;;8.20;;
77018;SDS011;66044;53.142;17.962;2023-11-22T11:23:27;20.20;;;9.10;;
77018;SDS011;66044;53.142;17.962;2023-11-22T11:25:58;20.90;;;9.20;;
77018;SDS011;66044;53.142;17.962;2023-11-22T11:28:44;17.00;;;6.60;;
77018;SDS011;66044;53.142;17.962;2023-11-22T11:31:13;15.10;;;7.30;;
77018;SDS011;66044;53.142;17.962;2023-11-22T11:36:23;15.50;;;7.10;;
77018;SDS011;66044;53.142;17.962;2023-11-22T11:38:52;15.00;;;6.70;;
77018;SDS011;66044;53.142;17.962;2023-11-22T11:41:27;16.30;;;7.10;;
77018;SDS011;66044;53.142;17.962;2023-11-22T11:43:55;15.60;;;7.40;;
77018;SDS011;66044;53.142;17.962;2023-11-22T11:46:22;16.30;;;7.10;;
77018;SDS011;66044;53.142;17.962;2023-11-22T11:48:51;15.20;;;7.30;;
77018;SDS011;66044;53.142;17.962;2023-11-22T11:51:20;18.30;;;8.30;;
77018;SDS011;66044;53.142;17.962;2023-11-22T11:53:51;16.90;;;6.70;;
77018;SDS011;66044;53.142;17.962;2023-11-22T11:56:18;17.70;;;7.50;;
77018;SDS011;66044;53.142;17.962;2023-11-22T11:58:45;15.50;;;6.30;;
77018;SDS011;66044;53.142;17.962;2023-11-22T12:01:14;18.90;;;7.30;;
77018;SDS011;66044;53.142;17.962;2023-11-22T12:03:48;15.30;;;7.40;;
77018;SDS011;66044;53.142;17.962;2023-11-22T12:06:18;20.00;;;8.20;;
77018;SDS011;66044;53.142;17.962;2023-11-22T12:08:46;16.80;;;7.70;;
77018;SDS011;66044;53.142;17.962;2023-11-22T12:11:13;14.90;;;7.60;;
77018;SDS011;66044;53.142;17.962;2023-11-22T12:13:42;17.50;;;7.90;;
77018;SDS011;66044;53.142;17.962;2023-11-22T12:16:18;15.40;;;6.80;;
77018;SDS011;66044;53.142;17.962;2023-11-22T12:18:45;16.30;;;8.40;;
77018;SDS011;66044;53.142;17.962;2023-11-22T12:21:17;15.00;;;7.10;;
77018;SDS011;66044;53.142;17.962;2023-11-22T12:23:45;15.10;;;6.80;;
77018;SDS011;66044;53.142;17.962;2023-11-22T12:26:14;15.70;;;7.60;;
77018;SDS011;66044;53.142;17.962;2023-11-22T12:28:45;14.30;;;6.50;;
77018;SDS011;66044;53.142;17.962;2023-11-22T12:31:14;15.50;;;6.70;;
77018;SDS011;66044;53.142;17.962;2023-11-22T12:33:42;14.50;;;6.80;;
77018;SDS011;66044;53.142;17.962;2023-11-22T12:36:10;15.10;;;6.50;;
77018;SDS011;66044;53.142;17.962;2023-11-22T12:38:40;13.40;;;6.20;;
77018;SDS011;66044;53.142;17.962;2023-11-22T12:41:07;16.20;;;7.10;;
77018;SDS011;66044;53.142;17.962;2023-11-22T12:43:34;12.40;;;5.60;;
77018;SDS011;66044;53.142;17.962;2023-11-22T12:46:05;13.80;;;5.60;;
77018;SDS011;66044;53.142;17.962;2023-11-22T12:48:44;13.30;;;7.20;;
77018;SDS011;66044;53.142;17.962;2023-11-22T12:51:14;12.80;;;6.20;;
77018;SDS011;66044;53.142;17.962;2023-11-22T12:53:48;13.10;;;6.30;;
77018;SDS011;66044;53.142;17.962;2023-11-22T12:56:16;10.80;;;5.00;;
77018;SDS011;66044;53.142;17.962;2023-11-22T12:58:42;11.40;;;5.40;;
77018;SDS011;66044;53.142;17.962;2023-11-22T13:01:09;11.20;;;5.30;;
77018;SDS011;66044;53.142;17.962;2023-11-22T13:03:35;10.20;;;5.10;;
77018;SDS011;66044;53.142;17.962;2023-11-22T13:06:02;12.00;;;5.50;;
77018;SDS011;66044;53.142;17.962;2023-11-22T13:08:29;10.70;;;5.30;;
77018;SDS011;66044;53.142;17.962;2023-11-22T13:10:56;11.40;;;4.60;;
77018;SDS011;66044;53.142;17.962;2023-11-22T13:13:24;10.40;;;4.80;;
77018;SDS011;66044;53.142;17.962;2023-11-22T13:15:54;10.30;;;4.80;;
77018;SDS011;66044;53.142;17.962;2023-11-22T13:18:20;12.70;;;5.70;;
77018;SDS011;66044;53.142;17.962;2023-11-22T13:20:52;14.70;;;5.90;;
77018;SDS011;66044;53.142;17.962;2023-11-22T13:23:18;12.60;;;5.90;;
77018;SDS011;66044;53.142;17.962;2023-11-22T13:25:45;12.40;;;6.10;;
77018;SDS011;66044;53.142;17.962;2023-11-22T13:28:12;12.50;;;6.40;;
77018;SDS011;66044;53.142;17.962;2023-11-22T13:30:39;12.10;;;5.70;;
77018;SDS011;66044;53.142;17.962;2023-11-22T13:33:06;10.50;;;5.30;;
77018;SDS011;66044;53.142;17.962;2023-11-22T13:35:32;11.30;;;5.50;;
77018;SDS011;66044;53.142;17.962;2023-11-22T13:38:04;11.80;;;5.90;;
77018;SDS011;66044;53.142;17.962;2023-11-22T13:40:36;15.00;;;7.00;;
77018;SDS011;66044;53.142;17.962;2023-11-22T13:43:06;13.30;;;6.60;;
77018;SDS011;66044;53.142;17.962;2023-11-22T13:45:36;14.00;;;7.10;;
77018;SDS011;66044;53.142;17.962;2023-11-22T13:48:04;14.30;;;6.30;;
77018;SDS011;66044;53.142;17.962;2023-11-22T13:50:32;15.20;;;7.10;;
77018;SDS011;66044;53.142;17.962;2023-11-22T13:52:59;13.90;;;6.60;;
77018;SDS011;66044;53.142;17.962;2023-11-22T13:55:25;17.40;;;6.50;;
77018;SDS011;66044;53.142;17.962;2023-11-22T13:57:52;18.30;;;7.90;;
77018;SDS011;66044;53.142;17.962;2023-11-22T14:00:21;15.10;;;6.00;;
77018;SDS011;66044;53.142;17.962;2023-11-22T14:02:54;18.90;;;8.10;;
77018;SDS011;66044;53.142;17.962;2023-11-22T14:05:23;15.40;;;7.80;;
77018;SDS011;66044;53.142;17.962;2023-11-22T14:07:50;13.10;;;6.10;;
77018;SDS011;66044;53.142;17.962;2023-11-22T14:10:18;19.10;;;8.70;;
77018;SDS011;66044;53.142;17.962;2023-11-22T14:12:45;20.40;;;9.70;;
77018;SDS011;66044;53.142;17.962;2023-11-22T14:15:13;19.90;;;9.10;;
77018;SDS011;66044;53.142;17.962;2023-11-22T14:17:40;20.10;;;9.60;;
77018;SDS011;66044;53.142;17.962;2023-11-22T14:20:10;20.50;;;10.00;;
77018;SDS011;66044;53.142;17.962;2023-11-22T14:22:38;21.10;;;10.10;;
77018;SDS011;66044;53.142;17.962;2023-11-22T14:25:06;21.20;;;9.80;;